Time;durP1;ratioP1;P1;durP2;ratioP2;P2;SDS_P1;SDS_P2;PMS_P1;PMS_P2;Temp;Humidity;BMP_temperature;BMP_pressure;BME280_temperature;BME280_humidity;BME280_pressure;Samples;Min_cycle;Max_cycle;Signal;HPM_P1;HPM_P2
2021/12/03 00:00:06;;;;;;;8.00;6.72;;;7.20;75.50;;;;;;4976576;28;20077;-52
2021/12/03 00:02:31;;;;;;;9.25;6.85;;;7.10;75.60;;;;;;4975586;28;20026;-50
2021/12/03 00:04:57;;;;;;;9.32;7.05;;;7.10;76.40;;;;;;4975544;28;20035;-53
2021/12/03 00:07:23;;;;;;;9.27;7.30;;;7.10;75.90;;;;;;4967682;28;20034;-51
2021/12/03 00:09:48;;;;;;;9.40;6.88;;;7.10;75.90;;;;;;4968790;28;20029;-51
2021/12/03 00:12:14;;;;;;;9.50;7.40;;;7.10;75.90;;;;;;4986897;28;20477;-52
2021/12/03 00:14:40;;;;;;;10.07;7.25;;;7.10;76.00;;;;;;4984284;28;20101;-51
2021/12/03 00:17:05;;;;;;;12.23;8.10;;;7.10;75.90;;;;;;4975390;28;20049;-51
2021/12/03 00:19:31;;;;;;;9.82;7.32;;;7.10;76.00;;;;;;4978248;28;20093;-53
2021/12/03 00:21:57;;;;;;;9.43;7.03;;;7.10;76.00;;;;;;4975187;28;20069;-50
2021/12/03 00:24:22;;;;;;;8.80;7.07;;;7.10;76.00;;;;;;4972302;28;20058;-50
2021/12/03 00:26:48;;;;;;;8.52;6.55;;;7.10;76.00;;;;;;4975149;28;20035;-51
2021/12/03 00:29:14;;;;;;;10.27;7.15;;;7.10;76.20;;;;;;4975142;28;20073;-51
2021/12/03 00:31:41;;;;;;;9.90;7.00;;;7.10;76.10;;;;;;4977766;28;20026;-51
2021/12/03 00:34:06;;;;;;;8.40;7.28;;;7.10;76.20;;;;;;4974486;28;20038;-52
2021/12/03 00:36:32;;;;;;;8.93;6.97;;;7.10;76.20;;;;;;4975039;28;20474;-50
2021/12/03 00:39:01;;;;;;;10.52;8.48;;;7.10;76.20;;;;;;4974871;28;20034;-50
2021/12/03 00:41:32;;;;;;;10.40;8.05;;;7.10;76.30;;;;;;4966408;28;20498;-53
2021/12/03 00:43:58;;;;;;;9.30;7.35;;;7.10;76.20;;;;;;4974201;28;20067;-53
2021/12/03 00:46:24;;;;;;;9.50;7.45;;;7.10;76.10;;;;;;4986690;28;20062;-54
2021/12/03 00:48:53;;;;;;;11.75;8.13;;;7.10;76.70;;;;;;4974000;28;20076;-53
2021/12/03 00:51:24;;;;;;;11.05;7.78;;;7.10;76.10;;;;;;4974707;28;20370;-54
2021/12/03 00:53:50;;;;;;;11.75;7.65;;;7.10;76.10;;;;;;4974688;28;20027;-51
2021/12/03 00:56:16;;;;;;;11.10;7.72;;;7.10;76.10;;;;;;4972625;28;20041;-53
2021/12/03 00:58:42;;;;;;;10.05;7.55;;;7.10;76.30;;;;;;4971156;28;20466;-51
2021/12/03 01:01:08;;;;;;;9.98;7.57;;;7.10;76.20;;;;;;4974524;28;20091;-51
2021/12/03 01:03:35;;;;;;;11.88;7.70;;;7.10;76.20;;;;;;4975405;28;20535;-52
2021/12/03 01:06:01;;;;;;;9.15;6.57;;;7.10;77.00;;;;;;4973718;28;20470;-51
2021/12/03 01:08:27;;;;;;;10.02;6.70;;;7.10;76.10;;;;;;4973385;28;20019;-51
2021/12/03 01:10:53;;;;;;;9.35;7.35;;;7.20;76.20;;;;;;4973780;28;20397;-51
2021/12/03 01:13:20;;;;;;;11.23;7.72;;;7.10;76.10;;;;;;4966206;28;20016;-51
2021/12/03 01:15:46;;;;;;;8.30;6.63;;;7.10;76.10;;;;;;4972355;28;20117;-51
2021/12/03 01:18:12;;;;;;;11.63;8.60;;;7.20;76.10;;;;;;4976841;28;20497;-51
2021/12/03 01:20:40;;;;;;;10.27;8.02;;;7.20;76.00;;;;;;4991638;28;20109;-51
2021/12/03 01:23:08;;;;;;;9.20;8.02;;;7.20;76.00;;;;;;4973596;28;20027;-54
2021/12/03 01:25:34;;;;;;;10.35;8.80;;;7.20;76.00;;;;;;4974258;28;20467;-51
2021/12/03 01:28:01;;;;;;;8.93;7.45;;;7.20;76.00;;;;;;4974097;28;20030;-54
2021/12/03 01:30:28;;;;;;;10.07;7.43;;;7.10;76.10;;;;;;4974097;28;20031;-51
2021/12/03 01:32:55;;;;;;;8.15;6.93;;;7.10;76.30;;;;;;4973895;28;20027;-52
2021/12/03 01:35:21;;;;;;;10.80;7.78;;;7.10;76.40;;;;;;4973208;28;20044;-52
2021/12/03 01:37:47;;;;;;;9.23;7.15;;;7.10;76.40;;;;;;4973223;28;20111;-50
2021/12/03 01:40:16;;;;;;;9.60;7.85;;;7.10;76.30;;;;;;4976489;28;20398;-53
2021/12/03 01:42:45;;;;;;;11.63;9.32;;;7.10;76.20;;;;;;4974000;28;20053;-54
2021/12/03 01:45:14;;;;;;;14.00;10.00;;;7.10;76.10;;;;;;4973387;28;20062;-54
2021/12/03 01:47:41;;;;;;;16.48;9.93;;;7.10;76.40;;;;;;4973545;28;20050;-52
2021/12/03 01:50:08;;;;;;;13.48;9.70;;;7.10;75.90;;;;;;4974074;28;20110;-52
2021/12/03 01:52:33;;;;;;;12.57;9.85;;;7.10;75.90;;;;;;4973868;28;20113;-51
2021/12/03 01:55:01;;;;;;;11.20;8.10;;;7.10;76.00;;;;;;4973846;28;20051;-50
2021/12/03 01:57:27;;;;;;;8.98;7.65;;;7.10;75.90;;;;;;4986301;28;20030;-51
2021/12/03 01:59:53;;;;;;;9.32;7.45;;;7.10;75.90;;;;;;4973772;28;20034;-54
2021/12/03 02:02:19;;;;;;;9.80;6.57;;;7.00;75.90;;;;;;4972939;28;20034;-54
2021/12/03 02:04:44;;;;;;;8.65;6.80;;;7.00;76.20;;;;;;4973814;28;20035;-53
2021/12/03 02:07:10;;;;;;;13.57;9.02;;;7.00;76.00;;;;;;4981895;28;20434;-51
2021/12/03 02:09:36;;;;;;;9.10;7.63;;;6.90;76.10;;;;;;4976141;28;20038;-51
2021/12/03 02:12:02;;;;;;;11.00;8.15;;;6.90;76.10;;;;;;4977834;28;20118;-51
2021/12/03 02:14:28;;;;;;;17.08;11.00;;;7.00;76.30;;;;;;4976771;28;20038;-51
2021/12/03 02:16:53;;;;;;;25.52;16.70;;;6.90;76.20;;;;;;4972868;28;20031;-51
2021/12/03 02:19:19;;;;;;;30.88;20.52;;;6.90;76.20;;;;;;4979207;28;20537;-51
2021/12/03 02:21:45;;;;;;;33.75;20.70;;;6.90;76.30;;;;;;4980352;28;20117;-51
2021/12/03 02:24:11;;;;;;;38.65;21.60;;;6.90;76.50;;;;;;4977296;28;20073;-51
2021/12/03 02:26:36;;;;;;;33.08;21.77;;;6.80;76.50;;;;;;4977269;28;20023;-53
2021/12/03 02:29:03;;;;;;;37.47;24.42;;;6.90;76.60;;;;;;4977339;28;20390;-50
2021/12/03 02:31:29;;;;;;;37.20;23.23;;;6.90;76.60;;;;;;4976344;28;20107;-50
2021/12/03 02:33:55;;;;;;;40.75;24.45;;;6.90;76.70;;;;;;4977038;28;20500;-51
2021/12/03 02:36:21;;;;;;;39.83;25.75;;;6.90;76.70;;;;;;4977478;28;20031;-51
2021/12/03 02:38:47;;;;;;;41.60;26.15;;;6.90;76.70;;;;;;4977277;28;20033;-50
2021/12/03 02:41:13;;;;;;;41.03;26.58;;;6.90;76.90;;;;;;4983732;28;20098;-50
2021/12/03 02:43:39;;;;;;;43.50;28.17;;;6.90;76.90;;;;;;4976562;28;20027;-51
2021/12/03 02:46:05;;;;;;;43.58;27.67;;;6.90;76.80;;;;;;4976757;28;20035;-50
2021/12/03 02:48:32;;;;;;;41.78;24.48;;;6.90;76.80;;;;;;4975281;28;20066;-50
2021/12/03 02:50:58;;;;;;;40.47;24.50;;;6.90;76.80;;;;;;4977243;28;20433;-51
2021/12/03 02:53:24;;;;;;;44.80;25.17;;;6.90;76.90;;;;;;4976689;28;20106;-54
2021/12/03 02:55:51;;;;;;;42.35;26.40;;;6.90;76.90;;;;;;4988823;28;20113;-54
2021/12/03 02:58:17;;;;;;;48.38;27.25;;;7.00;76.90;;;;;;4976803;28;20025;-54
2021/12/03 03:00:47;;;;;;;45.38;29.02;;;7.00;76.90;;;;;;4976640;28;20031;-51
2021/12/03 03:03:12;;;;;;;61.70;35.03;;;7.00;76.80;;;;;;4976723;28;20467;-51
2021/12/03 03:05:38;;;;;;;63.70;36.90;;;7.00;76.80;;;;;;4969982;28;20031;-53
2021/12/03 03:08:05;;;;;;;60.25;36.00;;;7.10;76.90;;;;;;4976603;28;20054;-54
2021/12/03 03:10:31;;;;;;;57.53;37.42;;;7.10;76.90;;;;;;4976031;28;20526;-52
2021/12/03 03:12:59;;;;;;;58.00;34.35;;;7.10;76.80;;;;;;4975858;28;20069;-51
2021/12/03 03:15:25;;;;;;;56.28;33.13;;;7.10;76.80;;;;;;4976051;28;20073;-52
2021/12/03 03:17:51;;;;;;;51.97;30.35;;;7.10;76.80;;;;;;4976316;28;20463;-51
2021/12/03 03:20:17;;;;;;;54.15;32.85;;;7.10;76.70;;;;;;4984520;28;20098;-51
2021/12/03 03:22:44;;;;;;;47.22;30.00;;;7.20;76.70;;;;;;4975295;28;20038;-51
2021/12/03 03:25:13;;;;;;;42.47;26.83;;;7.10;77.30;;;;;;4976592;28;20050;-50
2021/12/03 03:27:40;;;;;;;47.28;27.92;;;7.20;76.70;;;;;;4974548;28;20038;-50
2021/12/03 03:30:10;;;;;;;37.22;23.33;;;7.20;76.60;;;;;;4976221;28;20034;-50
2021/12/03 03:32:36;;;;;;;34.47;22.92;;;7.20;76.60;;;;;;4976099;28;20031;-50
2021/12/03 03:35:01;;;;;;;36.90;24.00;;;7.20;76.50;;;;;;4975855;28;20047;-54
2021/12/03 03:37:27;;;;;;;34.90;22.67;;;7.30;76.50;;;;;;4975118;28;20039;-51
2021/12/03 03:39:53;;;;;;;41.70;26.55;;;7.20;76.30;;;;;;4975886;28;20029;-51
2021/12/03 03:42:18;;;;;;;47.67;30.08;;;7.20;76.20;;;;;;4975858;28;20034;-51
2021/12/03 03:44:45;;;;;;;48.63;29.50;;;7.20;76.30;;;;;;4975835;28;20185;-51
2021/12/03 03:47:12;;;;;;;47.60;28.08;;;7.20;76.20;;;;;;4974990;28;20545;-50
2021/12/03 03:49:38;;;;;;;49.20;31.50;;;7.20;76.30;;;;;;4975004;28;20462;-51
2021/12/03 03:52:06;;;;;;;49.22;32.42;;;7.20;76.30;;;;;;4973772;28;20021;-54
2021/12/03 03:54:32;;;;;;;42.95;28.67;;;7.20;76.20;;;;;;4973192;28;20034;-51
2021/12/03 03:56:59;;;;;;;31.15;21.98;;;7.20;76.30;;;;;;4975247;28;20023;-51
2021/12/03 03:59:25;;;;;;;26.13;17.08;;;7.20;76.30;;;;;;4975731;28;20041;-51
2021/12/03 04:01:52;;;;;;;23.48;15.95;;;7.20;76.30;;;;;;4974801;28;20026;-51
2021/12/03 04:04:18;;;;;;;18.92;13.02;;;7.20;77.00;;;;;;4975469;28;20085;-50
2021/12/03 04:06:44;;;;;;;18.05;10.30;;;7.20;76.30;;;;;;4975496;28;20037;-50
2021/12/03 04:09:11;;;;;;;14.05;9.13;;;7.20;76.10;;;;;;4964165;28;20074;-51
2021/12/03 04:11:37;;;;;;;11.25;9.13;;;7.20;76.20;;;;;;4970566;28;20085;-51
2021/12/03 04:14:03;;;;;;;10.13;8.02;;;7.20;76.10;;;;;;4972952;28;20030;-51
2021/12/03 04:16:30;;;;;;;11.93;7.93;;;7.30;76.20;;;;;;4973688;28;20394;-51
2021/12/03 04:18:57;;;;;;;12.15;8.55;;;7.30;76.20;;;;;;4981523;28;20073;-54
2021/12/03 04:21:23;;;;;;;11.07;8.60;;;7.30;76.10;;;;;;4983535;28;20029;-51
2021/12/03 04:23:50;;;;;;;12.25;8.30;;;7.30;76.10;;;;;;4973886;28;20027;-52
2021/12/03 04:26:15;;;;;;;10.95;8.50;;;7.30;76.00;;;;;;4973744;28;20033;-52
2021/12/03 04:28:41;;;;;;;12.43;9.02;;;7.30;75.90;;;;;;4973231;28;20102;-50
2021/12/03 04:31:07;;;;;;;12.77;9.23;;;7.30;75.70;;;;;;4974312;28;20015;-52
2021/12/03 04:33:33;;;;;;;16.13;11.70;;;7.20;75.60;;;;;;4973849;28;20039;-51
2021/12/03 04:35:58;;;;;;;18.00;11.60;;;7.20;75.50;;;;;;4974940;28;20022;-54
2021/12/03 04:38:24;;;;;;;22.20;13.95;;;7.10;75.50;;;;;;4976350;28;20023;-51
2021/12/03 04:40:50;;;;;;;22.60;14.52;;;7.10;75.60;;;;;;4977179;28;20106;-50
2021/12/03 04:43:16;;;;;;;22.35;14.52;;;7.10;75.60;;;;;;4972370;28;20117;-50
2021/12/03 04:45:42;;;;;;;27.08;18.05;;;7.00;75.70;;;;;;4972531;28;20087;-50
2021/12/03 04:48:08;;;;;;;33.53;20.50;;;7.00;75.70;;;;;;4973277;28;20030;-52
2021/12/03 04:50:40;;;;;;;35.20;20.17;;;6.90;75.80;;;;;;4973016;28;20029;-51
2021/12/03 04:53:07;;;;;;;43.00;25.05;;;6.90;75.80;;;;;;4973204;28;20557;-51
2021/12/03 04:55:34;;;;;;;42.90;23.95;;;7.00;76.50;;;;;;4984933;28;20082;-50
2021/12/03 04:58:00;;;;;;;40.85;25.27;;;7.00;75.80;;;;;;4974510;28;20062;-54
2021/12/03 05:00:30;;;;;;;39.92;24.98;;;6.90;75.80;;;;;;4973892;28;20071;-53
2021/12/03 05:02:57;;;;;;;44.33;27.40;;;6.90;75.90;;;;;;4974677;28;20042;-54
2021/12/03 05:05:26;;;;;;;45.03;28.45;;;6.90;75.80;;;;;;4974213;28;20030;-53
2021/12/03 05:07:58;;;;;;;47.70;29.63;;;6.90;75.70;;;;;;4974611;28;20382;-50
2021/12/03 05:10:27;;;;;;;48.42;28.73;;;6.90;75.80;;;;;;4974309;28;20065;-54
2021/12/03 05:13:00;;;;;;;39.95;25.33;;;6.90;75.80;;;;;;4976475;28;20043;-53
2021/12/03 05:15:26;;;;;;;35.60;21.25;;;7.00;75.80;;;;;;4967749;28;20074;-51
2021/12/03 05:17:52;;;;;;;31.52;20.95;;;6.90;75.70;;;;;;4974184;28;20493;-51
2021/12/03 05:20:17;;;;;;;26.85;17.50;;;6.90;75.70;;;;;;4984736;28;20015;-51
2021/12/03 05:22:43;;;;;;;20.58;14.10;;;7.00;75.70;;;;;;4973878;28;20077;-51
2021/12/03 05:25:10;;;;;;;16.35;11.68;;;7.00;75.70;;;;;;4977954;28;20081;-50
2021/12/03 05:27:37;;;;;;;13.93;9.75;;;7.00;75.70;;;;;;4973825;28;20035;-51
2021/12/03 05:30:05;;;;;;;12.77;8.73;;;7.00;75.50;;;;;;4975677;28;20101;-51
2021/12/03 05:32:30;;;;;;;10.90;8.15;;;7.00;75.50;;;;;;4974112;28;20023;-51
2021/12/03 05:34:56;;;;;;;12.23;8.35;;;7.00;75.70;;;;;;4972979;28;20093;-51
2021/12/03 05:37:21;;;;;;;12.88;9.00;;;7.10;75.40;;;;;;4973988;28;20367;-50
2021/12/03 05:39:47;;;;;;;12.73;8.73;;;7.10;75.40;;;;;;4965498;28;20066;-51
2021/12/03 05:42:13;;;;;;;12.90;8.52;;;7.10;75.40;;;;;;4973988;28;20038;-51
2021/12/03 05:44:38;;;;;;;15.02;9.23;;;7.10;75.30;;;;;;4972131;28;20069;-51
2021/12/03 05:47:04;;;;;;;13.73;9.68;;;7.10;75.30;;;;;;4978854;28;20039;-53
2021/12/03 05:49:30;;;;;;;14.40;8.95;;;7.20;75.20;;;;;;4967345;28;20383;-52
2021/12/03 05:51:56;;;;;;;10.70;7.60;;;7.20;75.20;;;;;;4970830;28;20035;-52
2021/12/03 05:54:22;;;;;;;12.18;7.68;;;7.20;75.20;;;;;;4973729;28;20022;-50
2021/12/03 05:56:51;;;;;;;12.30;8.15;;;7.20;75.00;;;;;;4973478;28;20070;-50
2021/12/03 05:59:17;;;;;;;11.77;7.45;;;7.20;74.90;;;;;;4966936;28;20069;-53
2021/12/03 06:01:43;;;;;;;11.85;7.30;;;7.20;74.90;;;;;;4973194;28;20027;-52
2021/12/03 06:04:08;;;;;;;11.70;7.53;;;7.30;75.10;;;;;;4977485;28;20031;-51
2021/12/03 06:06:34;;;;;;;10.70;7.05;;;7.30;74.90;;;;;;4979317;28;20038;-51
2021/12/03 06:09:00;;;;;;;10.38;7.05;;;7.30;74.90;;;;;;4982197;28;20027;-50
2021/12/03 06:11:26;;;;;;;11.32;7.13;;;7.30;74.90;;;;;;4977218;28;20453;-50
2021/12/03 06:13:52;;;;;;;11.75;6.72;;;7.30;74.80;;;;;;4974704;28;20033;-54
2021/12/03 06:16:18;;;;;;;10.07;6.70;;;7.40;74.90;;;;;;4987025;28;20359;-54
2021/12/03 06:18:44;;;;;;;9.25;6.28;;;7.40;74.80;;;;;;4960804;28;20122;-51
2021/12/03 06:21:14;;;;;;;11.18;6.75;;;7.40;74.80;;;;;;4975661;28;20069;-54
2021/12/03 06:23:40;;;;;;;8.05;6.40;;;7.40;75.00;;;;;;4976947;28;20027;-52
2021/12/03 06:26:08;;;;;;;11.57;6.97;;;7.40;74.80;;;;;;4972743;28;20038;-53
2021/12/03 06:28:35;;;;;;;9.30;6.75;;;7.40;74.80;;;;;;4971162;28;20070;-51
2021/12/03 06:31:01;;;;;;;8.88;7.28;;;7.40;74.80;;;;;;4979611;28;20115;-53
2021/12/03 06:33:27;;;;;;;9.55;7.03;;;7.40;75.00;;;;;;4980552;28;20467;-51
2021/12/03 06:35:53;;;;;;;12.13;7.95;;;7.40;75.10;;;;;;4972612;28;20053;-54
2021/12/03 06:38:19;;;;;;;9.52;7.35;;;7.40;75.20;;;;;;4970934;28;20441;-51
2021/12/03 06:40:46;;;;;;;10.60;8.18;;;7.50;75.20;;;;;;4968616;28;20022;-50
2021/12/03 06:43:11;;;;;;;11.63;7.45;;;7.50;75.30;;;;;;4974823;28;20030;-51
2021/12/03 06:45:38;;;;;;;10.57;7.32;;;7.50;75.40;;;;;;4971492;28;20026;-51
2021/12/03 06:48:04;;;;;;;10.98;8.15;;;7.60;75.40;;;;;;4964902;28;21018;-50
2021/12/03 06:50:32;;;;;;;11.93;8.57;;;7.60;75.40;;;;;;4967659;28;20030;-51
2021/12/03 06:53:04;;;;;;;11.70;8.68;;;7.60;75.40;;;;;;4965247;28;20042;-54
2021/12/03 06:55:37;;;;;;;12.43;8.70;;;7.60;75.50;;;;;;4963207;28;20030;-51
2021/12/03 06:58:03;;;;;;;9.63;8.05;;;7.70;75.60;;;;;;4970737;28;20027;-53
2021/12/03 07:00:28;;;;;;;11.57;7.70;;;7.70;75.50;;;;;;4971622;28;20406;-50
2021/12/03 07:02:54;;;;;;;10.15;7.47;;;7.70;75.50;;;;;;4970186;28;20035;-52
2021/12/03 07:05:20;;;;;;;10.65;6.78;;;7.70;75.70;;;;;;4966384;28;20098;-51
2021/12/03 07:07:46;;;;;;;11.23;7.03;;;7.70;75.70;;;;;;4967023;28;20841;-51
2021/12/03 07:10:12;;;;;;;9.60;7.22;;;7.70;75.80;;;;;;4967303;28;20062;-51
2021/12/03 07:12:38;;;;;;;9.55;7.38;;;7.70;76.00;;;;;;4971802;28;20110;-53
2021/12/03 07:15:05;;;;;;;9.43;6.85;;;7.80;76.20;;;;;;4971283;28;20082;-52
2021/12/03 07:17:33;;;;;;;11.60;7.65;;;7.80;76.30;;;;;;4968698;28;20039;-54
2021/12/03 07:20:00;;;;;;;8.95;7.22;;;7.80;76.30;;;;;;4968178;28;20037;-54
2021/12/03 07:22:28;;;;;;;10.43;7.00;;;7.80;76.40;;;;;;4961362;28;20038;-55
2021/12/03 07:24:54;;;;;;;9.68;6.78;;;7.90;76.70;;;;;;4965955;28;20091;-54
2021/12/03 07:27:20;;;;;;;10.55;7.35;;;7.90;76.50;;;;;;4957443;28;20095;-54
2021/12/03 07:29:48;;;;;;;9.85;7.10;;;7.90;76.70;;;;;;4955544;28;20033;-55
2021/12/03 07:32:19;;;;;;;9.13;6.95;;;7.90;76.80;;;;;;4963954;28;20369;-53
2021/12/03 07:34:45;;;;;;;8.52;6.30;;;7.90;77.00;;;;;;4959526;28;20045;-55
2021/12/03 07:37:12;;;;;;;8.15;6.68;;;7.90;77.20;;;;;;4961782;28;20049;-54
2021/12/03 07:39:38;;;;;;;8.82;6.53;;;8.00;77.50;;;;;;4958533;28;20586;-55
2021/12/03 07:42:05;;;;;;;7.95;6.45;;;8.00;77.50;;;;;;4962619;28;20022;-54
2021/12/03 07:44:31;;;;;;;7.95;5.97;;;8.00;77.50;;;;;;4957900;28;20692;-53
2021/12/03 07:46:57;;;;;;;8.40;6.38;;;8.10;77.80;;;;;;4957699;28;20034;-55
2021/12/03 07:49:24;;;;;;;9.30;6.78;;;8.10;78.00;;;;;;4954988;28;20082;-55
2021/12/03 07:51:50;;;;;;;9.90;6.75;;;8.20;78.20;;;;;;4945064;28;20054;-54
2021/12/03 07:54:15;;;;;;;10.35;7.80;;;8.20;78.30;;;;;;4956944;28;20570;-55
2021/12/03 07:56:41;;;;;;;12.00;8.57;;;8.20;78.40;;;;;;4961359;28;20097;-55
2021/12/03 07:59:07;;;;;;;12.50;8.48;;;8.30;78.60;;;;;;4950120;28;20113;-55
2021/12/03 08:01:33;;;;;;;11.38;8.38;;;8.30;78.90;;;;;;4947940;28;20038;-55
2021/12/03 08:03:59;;;;;;;15.55;10.32;;;8.30;79.10;;;;;;4955475;28;20036;-54
2021/12/03 08:06:25;;;;;;;15.98;11.85;;;8.40;79.00;;;;;;4953074;28;20043;-54
2021/12/03 08:08:50;;;;;;;21.70;14.77;;;8.40;79.00;;;;;;4945784;28;20034;-52
2021/12/03 08:11:16;;;;;;;22.75;16.35;;;8.50;79.10;;;;;;4948201;28;20038;-55
2021/12/03 08:13:42;;;;;;;28.63;19.33;;;8.60;79.30;;;;;;4947902;28;20533;-55
2021/12/03 08:16:08;;;;;;;31.25;20.00;;;8.70;79.30;;;;;;4951733;28;20090;-53
2021/12/03 08:18:34;;;;;;;25.67;17.70;;;8.70;79.20;;;;;;4954139;28;20080;-55
2021/12/03 08:21:00;;;;;;;21.10;14.95;;;8.80;79.20;;;;;;4954717;28;20042;-55
2021/12/03 08:23:26;;;;;;;20.80;15.13;;;8.90;79.20;;;;;;4953296;28;20125;-55
2021/12/03 08:25:55;;;;;;;17.52;12.35;;;8.90;79.20;;;;;;4947534;28;20034;-55
2021/12/03 08:28:21;;;;;;;18.40;11.93;;;9.00;79.30;;;;;;4952868;28;20697;-54
2021/12/03 08:30:46;;;;;;;16.42;12.27;;;9.10;79.30;;;;;;4949293;28;20031;-55
2021/12/03 08:33:12;;;;;;;16.63;12.02;;;9.20;79.40;;;;;;4945985;28;20035;-52
2021/12/03 08:35:38;;;;;;;13.43;11.75;;;9.20;79.40;;;;;;4947839;28;21979;-54
2021/12/03 08:38:04;;;;;;;19.55;13.88;;;9.30;79.50;;;;;;4950383;28;20050;-52
2021/12/03 08:40:30;;;;;;;20.63;14.27;;;9.40;79.50;;;;;;4960035;28;20035;-55
2021/12/03 08:42:56;;;;;;;19.10;14.23;;;9.50;79.60;;;;;;4960684;28;20394;-55
2021/12/03 08:45:21;;;;;;;25.00;16.58;;;9.60;79.50;;;;;;4960116;28;20062;-54
2021/12/03 08:47:57;;;;;;;27.35;18.70;;;9.70;79.50;;;;;;4954475;28;20438;-54
2021/12/03 08:50:46;;;;;;;23.95;16.08;;;9.80;79.40;;;;;;4951726;28;20018;-54
2021/12/03 08:55:44;;;;;;;19.50;13.68;;;10.00;79.10;;;;;;4953787;28;20042;-54
2021/12/03 08:58:11;;;;;;;17.17;12.88;;;10.10;78.90;;;;;;4958804;28;20031;-55
2021/12/03 09:00:37;;;;;;;14.77;11.27;;;10.20;78.90;;;;;;4957743;28;20553;-52
2021/12/03 09:03:05;;;;;;;18.80;11.85;;;10.20;78.80;;;;;;4950248;28;20040;-55
2021/12/03 09:05:32;;;;;;;15.95;11.85;;;10.30;78.80;;;;;;4951341;28;20054;-54
2021/12/03 09:07:58;;;;;;;15.27;11.20;;;10.40;78.70;;;;;;4956256;28;20398;-55
2021/12/03 09:10:24;;;;;;;12.23;9.68;;;10.40;78.80;;;;;;4953358;28;20023;-54
2021/12/03 09:12:52;;;;;;;13.40;8.98;;;10.40;78.80;;;;;;4950916;28;20491;-55
2021/12/03 09:15:24;;;;;;;11.15;9.13;;;10.50;78.90;;;;;;4955664;28;20031;-55
2021/12/03 09:23:00;;;;;;;11.80;8.60;;;10.60;78.90;;;;;;4952829;28;20060;-55
2021/12/03 09:25:35;;;;;;;10.73;9.20;;;10.60;78.70;;;;;;4953882;28;20042;-55
2021/12/03 09:28:03;;;;;;;12.98;9.65;;;10.60;78.80;;;;;;4950354;28;20034;-54
2021/12/03 09:30:36;;;;;;;12.43;9.93;;;10.70;78.80;;;;;;4950085;28;20557;-53
2021/12/03 09:33:03;;;;;;;11.57;8.95;;;10.70;79.50;;;;;;4954751;28;20038;-54
2021/12/03 09:35:30;;;;;;;12.57;9.15;;;10.70;78.80;;;;;;4949875;28;20050;-54
2021/12/03 09:37:56;;;;;;;12.05;9.30;;;10.70;78.70;;;;;;4946542;28;20038;-54
2021/12/03 09:40:25;;;;;;;12.75;8.63;;;10.80;79.00;;;;;;4950268;28;20039;-54
2021/12/03 09:42:51;;;;;;;13.55;9.18;;;10.80;78.80;;;;;;4947923;28;20035;-54
2021/12/03 09:45:17;;;;;;;14.50;9.73;;;10.80;78.80;;;;;;4956622;28;20041;-55
2021/12/03 09:47:44;;;;;;;12.70;8.98;;;10.80;78.70;;;;;;4965894;28;20034;-55
2021/12/03 09:50:14;;;;;;;17.27;10.85;;;10.90;78.80;;;;;;4946503;28;20469;-55
2021/12/03 09:55:22;;;;;;;16.73;11.80;;;11.00;78.80;;;;;;4953978;28;20042;-54
2021/12/03 10:00:36;;;;;;;17.52;12.10;;;11.10;78.60;;;;;;4957134;28;20037;-55
2021/12/03 10:17:31;;;;;;;13.65;8.45;;;11.50;78.10;;;;;;4954385;28;20035;-54
2021/12/03 10:20:12;;;;;;;12.68;7.60;;;11.60;78.00;;;;;;4951281;28;20062;-54
2021/12/03 10:39:34;;;;;;;8.13;6.05;;;12.00;76.60;;;;;;4951735;28;20133;-56
2021/12/03 11:31:20;;;;;;;6.97;5.97;;;12.60;75.40;;;;;;4951347;28;20057;-56
2021/12/03 13:12:04;;;;;;;9.55;5.55;;;12.40;69.10;;;;;;4924444;28;20157;-55
2021/12/03 13:21:16;;;;;;;6.50;4.70;;;12.20;68.80;;;;;;4946636;28;20823;-55
2021/12/03 13:39:51;;;;;;;7.70;5.05;;;11.60;68.30;;;;;;4946243;28;20045;-55
2021/12/03 14:36:16;;;;;;;9.77;7.45;;;10.30;68.50;;;;;;4941362;28;20051;-54
2021/12/03 14:53:22;;;;;;;17.00;11.63;;;9.40;69.40;;;;;;4960250;28;20033;-55
2021/12/03 14:55:41;;;;;;;15.68;11.73;;;9.30;69.30;;;;;;4957630;28;20032;-54
2021/12/03 14:58:13;;;;;;;15.25;11.57;;;9.30;69.60;;;;;;4951915;28;21235;-55
2021/12/03 15:03:37;;;;;;;15.55;12.35;;;9.20;69.70;;;;;;4951254;28;20030;-55
2021/12/03 15:26:34;;;;;;;25.75;16.23;;;8.60;71.00;;;;;;4956438;28;22476;-53
2021/12/03 15:31:48;;;;;;;25.20;16.52;;;8.30;71.70;;;;;;4957467;28;20033;-55
2021/12/03 16:21:53;;;;;;;4.47;3.85;;;6.80;74.70;;;;;;4899984;29;20075;-55
2021/12/03 16:54:01;;;;;;;3.55;3.25;;;6.40;76.30;;;;;;4971188;28;20029;-54
2021/12/03 16:56:28;;;;;;;4.38;3.58;;;6.30;76.50;;;;;;4968161;28;20035;-53
2021/12/03 16:58:56;;;;;;;3.65;3.35;;;6.30;76.40;;;;;;4973557;28;20133;-52
2021/12/03 17:14:22;;;;;;;4.55;3.53;;;6.10;76.50;;;;;;4969641;28;19929;-53
2021/12/03 17:30:41;;;;;;;4.32;3.95;;;6.10;77.00;;;;;;4966502;28;20192;-52
2021/12/03 17:49:30;;;;;;;3.97;3.63;;;6.10;77.30;;;;;;4970010;28;20104;-55
2021/12/03 17:52:09;;;;;;;3.65;3.35;;;6.10;77.30;;;;;;4973481;28;20093;-53
2021/12/03 17:57:06;;;;;;;3.85;3.42;;;6.10;77.30;;;;;;4972004;28;20035;-55
2021/12/03 17:59:42;;;;;;;3.55;3.25;;;6.10;77.40;;;;;;4967069;28;20065;-52
2021/12/03 18:02:24;;;;;;;3.47;3.17;;;6.10;77.60;;;;;;4975988;28;20058;-51
2021/12/03 18:16:12;;;;;;;3.83;3.53;;;6.00;77.60;;;;;;4966222;28;20030;-53
2021/12/03 18:56:00;;;;;;;7.30;6.60;;;6.00;77.90;;;;;;4976134;28;20085;-55
2021/12/03 18:58:28;;;;;;;7.72;6.93;;;5.90;77.20;;;;;;4977829;28;20035;-54
2021/12/03 19:00:56;;;;;;;7.80;7.03;;;6.00;77.90;;;;;;4987364;28;20487;-52
2021/12/03 19:03:33;;;;;;;8.65;6.97;;;6.00;77.90;;;;;;4980976;28;20049;-54
2021/12/03 19:06:21;;;;;;;7.72;6.93;;;6.00;78.10;;;;;;4985705;28;20035;-54
2021/12/03 19:08:54;;;;;;;9.30;8.40;;;6.00;77.70;;;;;;4988408;28;20022;-52
2021/12/03 19:11:23;;;;;;;8.30;7.50;;;6.00;77.70;;;;;;4985968;28;20367;-53
2021/12/03 19:13:51;;;;;;;8.48;7.40;;;6.00;77.70;;;;;;4987638;28;20050;-54
2021/12/03 19:16:21;;;;;;;9.75;7.70;;;6.00;77.70;;;;;;4975708;28;20045;-54
2021/12/03 19:18:49;;;;;;;8.00;7.03;;;6.00;77.70;;;;;;4983904;28;20023;-52
2021/12/03 19:21:23;;;;;;;9.88;8.13;;;6.00;77.50;;;;;;4982722;28;20067;-53
2021/12/03 19:23:58;;;;;;;7.97;7.20;;;6.00;77.50;;;;;;4978224;28;20039;-53
2021/12/03 19:26:25;;;;;;;8.93;8.02;;;6.00;77.40;;;;;;4987073;28;20110;-51
2021/12/03 19:28:51;;;;;;;8.95;7.53;;;6.00;77.40;;;;;;4982764;28;20015;-52
2021/12/03 19:31:21;;;;;;;8.70;7.80;;;6.00;77.40;;;;;;4980886;28;20097;-52
2021/12/03 19:33:47;;;;;;;8.68;7.78;;;6.00;77.40;;;;;;4984946;28;20441;-52
2021/12/03 19:36:20;;;;;;;9.38;8.38;;;6.00;77.40;;;;;;4982363;28;20045;-54
2021/12/03 19:38:46;;;;;;;9.10;8.07;;;6.00;77.30;;;;;;4985959;28;20026;-52
2021/12/03 19:41:20;;;;;;;9.55;8.55;;;6.00;78.00;;;;;;4981590;28;20037;-54
2021/12/03 19:43:52;;;;;;;9.50;8.50;;;6.00;77.30;;;;;;4980560;28;20498;-53
2021/12/03 19:46:26;;;;;;;10.75;9.63;;;6.00;77.40;;;;;;4975908;28;20113;-53
2021/12/03 19:51:26;;;;;;;10.43;9.15;;;5.90;77.40;;;;;;4984898;28;20091;-54
2021/12/03 19:53:59;;;;;;;12.02;9.88;;;5.90;77.40;;;;;;4983633;28;20170;-52
2021/12/03 19:56:30;;;;;;;10.52;9.40;;;5.90;77.40;;;;;;4981058;28;20042;-52
2021/12/03 19:58:58;;;;;;;12.48;9.50;;;5.90;77.30;;;;;;4979917;28;20022;-53
2021/12/03 20:01:24;;;;;;;12.82;10.13;;;5.90;77.00;;;;;;4981865;28;20031;-54
2021/12/03 20:03:53;;;;;;;11.23;9.80;;;5.90;77.00;;;;;;4977465;28;20031;-54
2021/12/03 20:06:20;;;;;;;12.73;10.73;;;5.80;77.00;;;;;;4989835;28;20038;-53
2021/12/03 20:08:47;;;;;;;12.63;10.02;;;5.80;77.00;;;;;;4977715;28;20030;-55
2021/12/03 20:11:13;;;;;;;13.93;10.30;;;5.80;77.10;;;;;;4981430;28;20018;-54
2021/12/03 20:13:44;;;;;;;11.20;9.57;;;5.70;77.00;;;;;;4988382;28;20050;-53
2021/12/03 20:18:49;;;;;;;11.80;9.65;;;5.70;76.90;;;;;;4969434;28;20114;-54
2021/12/03 20:21:17;;;;;;;12.40;9.10;;;5.70;76.90;;;;;;4972787;28;20483;-53
2021/12/03 20:31:34;;;;;;;13.88;10.75;;;5.60;76.70;;;;;;4980844;28;20038;-52
2021/12/03 20:34:11;;;;;;;12.68;10.50;;;5.60;76.60;;;;;;4974144;28;20047;-55
2021/12/03 20:39:41;;;;;;;11.77;8.40;;;5.60;76.70;;;;;;4964723;28;20491;-53
2021/12/03 20:42:22;;;;;;;12.70;9.35;;;5.60;76.60;;;;;;4983791;28;20027;-55
2021/12/03 20:52:28;;;;;;;11.23;9.70;;;5.50;76.70;;;;;;4984909;28;20063;-52
2021/12/03 21:08:23;;;;;;;9.30;7.88;;;5.40;76.60;;;;;;4974532;28;20057;-53
2021/12/03 21:10:52;;;;;;;9.82;7.68;;;5.40;76.60;;;;;;4981822;28;20105;-53
2021/12/03 21:13:28;;;;;;;10.00;7.93;;;5.30;76.40;;;;;;4983656;28;20050;-54
2021/12/03 21:21:11;;;;;;;9.65;8.35;;;5.30;76.20;;;;;;4980836;28;20370;-54
2021/12/03 21:23:44;;;;;;;9.38;8.45;;;5.30;76.10;;;;;;4974634;28;20493;-52
2021/12/03 21:26:15;;;;;;;9.93;8.60;;;5.30;76.00;;;;;;4979124;28;20418;-51
2021/12/03 21:31:55;;;;;;;8.57;7.68;;;5.20;75.80;;;;;;4943486;28;20042;-54